sensor_id;sensor_type;location;lat;lon;timestamp;pressure;altitude;pressure_sealevel;temperature;humidity
40998;BME280;26740;45.944;12.480;2024-03-25T00:01:26;100426.78;;;2.82;100.00
40998;BME280;26740;45.944;12.480;2024-03-25T00:03:52;100410.31;;;2.89;100.00
40998;BME280;26740;45.944;12.480;2024-03-25T00:06:17;100421.72;;;2.85;100.00
40998;BME280;26740;45.944;12.480;2024-03-25T00:08:43;100412.44;;;2.87;100.00
40998;BME280;26740;45.944;12.480;2024-03-25T00:11:08;100422.78;;;2.84;100.00
40998;BME280;26740;45.944;12.480;2024-03-25T00:13:34;100408.03;;;2.79;100.00
40998;BME280;26740;45.944;12.480;2024-03-25T00:15:59;100412.03;;;2.83;100.00
40998;BME280;26740;45.944;12.480;2024-03-25T00:21:00;100414.16;;;2.54;100.00
40998;BME280;26740;45.944;12.480;2024-03-25T00:23:26;100413.06;;;2.49;100.00
40998;BME280;26740;45.944;12.480;2024-03-25T00:25:51;100413.06;;;2.49;100.00
40998;BME280;26740;45.944;12.480;2024-03-25T00:28:17;100409.91;;;2.45;100.00
40998;BME280;26740;45.944;12.480;2024-03-25T00:30:42;100411.19;;;2.62;100.00
40998;BME280;26740;45.944;12.480;2024-03-25T00:33:08;100410.75;;;2.65;100.00
40998;BME280;26740;45.944;12.480;2024-03-25T00:35:33;100422.78;;;2.64;100.00
40998;BME280;26740;45.944;12.480;2024-03-25T00:37:59;100419.00;;;2.65;100.00
40998;BME280;26740;45.944;12.480;2024-03-25T00:40:25;100414.56;;;2.78;100.00
40998;BME280;26740;45.944;12.480;2024-03-25T00:42:51;100413.72;;;2.77;100.00
40998;BME280;26740;45.944;12.480;2024-03-25T00:45:17;100414.56;;;2.71;100.00
40998;BME280;26740;45.944;12.480;2024-03-25T00:47:43;100423.44;;;2.60;100.00
40998;BME280;26740;45.944;12.480;2024-03-25T00:50:09;100422.97;;;2.70;100.00
40998;BME280;26740;45.944;12.480;2024-03-25T00:52:34;100419.84;;;2.86;100.00
40998;BME280;26740;45.944;12.480;2024-03-25T00:55:00;100420.25;;;2.83;100.00
40998;BME280;26740;45.944;12.480;2024-03-25T00:57:26;100410.34;;;2.55;100.00
40998;BME280;26740;45.944;12.480;2024-03-25T00:59:52;100405.50;;;2.37;100.00
40998;BME280;26740;45.944;12.480;2024-03-25T01:02:17;100401.69;;;2.45;100.00
40998;BME280;26740;45.944;12.480;2024-03-25T01:04:43;100403.38;;;2.46;100.00
40998;BME280;26740;45.944;12.480;2024-03-25T01:07:09;100400.41;;;2.27;100.00
40998;BME280;26740;45.944;12.480;2024-03-25T01:09:34;100403.56;;;2.11;100.00
40998;BME280;26740;45.944;12.480;2024-03-25T01:12:00;100403.34;;;2.06;100.00
40998;BME280;26740;45.944;12.480;2024-03-25T01:14:26;100401.44;;;2.00;100.00
40998;BME280;26740;45.944;12.480;2024-03-25T01:16:52;100400.56;;;1.99;100.00
40998;BME280;26740;45.944;12.480;2024-03-25T01:19:18;100401.22;;;2.01;100.00
40998;BME280;26740;45.944;12.480;2024-03-25T01:21:43;100397.00;;;1.99;100.00
40998;BME280;26740;45.944;12.480;2024-03-25T01:24:09;100398.06;;;2.04;100.00
40998;BME280;26740;45.944;12.480;2024-03-25T01:26:35;100395.97;;;2.13;100.00
40998;BME280;26740;45.944;12.480;2024-03-25T01:29:02;100397.22;;;2.04;100.00
40998;BME280;26740;45.944;12.480;2024-03-25T01:31:27;100399.50;;;1.94;100.00
40998;BME280;26740;45.944;12.480;2024-03-25T01:33:53;100399.09;;;1.90;100.00
40998;BME280;26740;45.944;12.480;2024-03-25T01:36:18;100391.28;;;1.87;100.00
40998;BME280;26740;45.944;12.480;2024-03-25T01:38:44;100388.09;;;1.83;100.00
40998;BME280;26740;45.944;12.480;2024-03-25T01:41:13;100398.44;;;1.81;100.00
40998;BME280;26740;45.944;12.480;2024-03-25T01:43:41;100392.34;;;1.86;100.00
40998;BME280;26740;45.944;12.480;2024-03-25T01:46:07;100384.09;;;1.79;100.00
40998;BME280;26740;45.944;12.480;2024-03-25T01:48:33;100392.31;;;1.79;100.00
40998;BME280;26740;45.944;12.480;2024-03-25T01:50:58;100396.41;;;2.17;100.00
40998;BME280;26740;45.944;12.480;2024-03-25T01:53:28;100403.13;;;1.94;100.00
40998;BME280;26740;45.944;12.480;2024-03-25T01:55:55;100392.69;;;1.63;100.00
40998;BME280;26740;45.944;12.480;2024-03-25T01:58:22;100388.91;;;1.57;100.00
40998;BME280;26740;45.944;12.480;2024-03-25T02:00:49;100385.66;;;1.40;100.00
40998;BME280;26740;45.944;12.480;2024-03-25T02:03:16;100384.63;;;1.41;100.00
40998;BME280;26740;45.944;12.480;2024-03-25T02:05:42;100393.47;;;1.43;100.00
40998;BME280;26740;45.944;12.480;2024-03-25T02:08:09;100392.88;;;1.55;100.00
40998;BME280;26740;45.944;12.480;2024-03-25T02:10:35;100390.38;;;1.60;100.00
40998;BME280;26740;45.944;12.480;2024-03-25T02:13:01;100396.03;;;1.58;100.00
40998;BME280;26740;45.944;12.480;2024-03-25T02:15:27;100400.28;;;1.61;100.00
40998;BME280;26740;45.944;12.480;2024-03-25T02:17:52;100394.19;;;1.72;100.00
40998;BME280;26740;45.944;12.480;2024-03-25T02:20:18;100405.75;;;1.61;100.00
40998;BME280;26740;45.944;12.480;2024-03-25T02:22:44;100414.03;;;1.39;100.00
40998;BME280;26740;45.944;12.480;2024-03-25T02:25:10;100423.13;;;1.40;100.00
40998;BME280;26740;45.944;12.480;2024-03-25T02:27:39;100421.63;;;1.37;100.00
40998;BME280;26740;45.944;12.480;2024-03-25T02:30:09;100419.13;;;1.42;100.00
40998;BME280;26740;45.944;12.480;2024-03-25T02:32:38;100409.63;;;1.38;100.00
40998;BME280;26740;45.944;12.480;2024-03-25T02:35:06;100411.53;;;1.44;100.00
40998;BME280;26740;45.944;12.480;2024-03-25T02:37:33;100419.94;;;1.43;100.00
40998;BME280;26740;45.944;12.480;2024-03-25T02:40:01;100420.81;;;1.43;100.00
40998;BME280;26740;45.944;12.480;2024-03-25T02:42:29;100425.38;;;1.29;100.00
40998;BME280;26740;45.944;12.480;2024-03-25T02:44:55;100422.34;;;1.18;100.00
40998;BME280;26740;45.944;12.480;2024-03-25T02:47:21;100425.94;;;1.18;100.00
40998;BME280;26740;45.944;12.480;2024-03-25T02:49:47;100421.06;;;1.13;100.00
40998;BME280;26740;45.944;12.480;2024-03-25T02:52:12;100430.25;;;1.06;100.00
40998;BME280;26740;45.944;12.480;2024-03-25T02:54:38;100431.72;;;1.02;100.00
40998;BME280;26740;45.944;12.480;2024-03-25T02:57:04;100434.22;;;0.97;100.00
40998;BME280;26740;45.944;12.480;2024-03-25T02:59:29;100436.09;;;0.96;100.00
40998;BME280;26740;45.944;12.480;2024-03-25T03:01:55;100445.53;;;0.93;100.00
40998;BME280;26740;45.944;12.480;2024-03-25T03:04:20;100434.31;;;1.10;100.00
40998;BME280;26740;45.944;12.480;2024-03-25T03:06:46;100433.28;;;1.18;100.00
40998;BME280;26740;45.944;12.480;2024-03-25T03:09:11;100436.41;;;1.14;100.00
40998;BME280;26740;45.944;12.480;2024-03-25T03:11:37;100444.34;;;1.03;100.00
40998;BME280;26740;45.944;12.480;2024-03-25T03:14:02;100439.81;;;1.17;100.00
40998;BME280;26740;45.944;12.480;2024-03-25T03:16:28;100445.25;;;1.10;100.00
40998;BME280;26740;45.944;12.480;2024-03-25T03:18:54;100443.78;;;1.14;100.00
40998;BME280;26740;45.944;12.480;2024-03-25T03:21:20;100447.28;;;1.01;100.00
40998;BME280;26740;45.944;12.480;2024-03-25T03:23:46;100441.63;;;1.03;100.00
40998;BME280;26740;45.944;12.480;2024-03-25T03:26:11;100446.09;;;1.10;100.00
40998;BME280;26740;45.944;12.480;2024-03-25T03:28:38;100451.94;;;1.07;100.00
40998;BME280;26740;45.944;12.480;2024-03-25T03:31:03;100443.69;;;1.29;100.00
40998;BME280;26740;45.944;12.480;2024-03-25T03:33:29;100447.84;;;1.25;100.00
40998;BME280;26740;45.944;12.480;2024-03-25T03:35:54;100440.41;;;1.12;100.00
40998;BME280;26740;45.944;12.480;2024-03-25T03:38:22;100446.91;;;1.11;100.00
40998;BME280;26740;45.944;12.480;2024-03-25T03:41:01;100452.50;;;0.96;100.00
40998;BME280;26740;45.944;12.480;2024-03-25T03:43:27;100449.53;;;0.91;100.00
40998;BME280;26740;45.944;12.480;2024-03-25T03:45:53;100456.53;;;1.00;100.00
40998;BME280;26740;45.944;12.480;2024-03-25T03:48:19;100454.03;;;1.05;100.00
40998;BME280;26740;45.944;12.480;2024-03-25T03:50:44;100446.34;;;0.87;100.00
40998;BME280;26740;45.944;12.480;2024-03-25T03:53:10;100451.75;;;0.81;100.00
40998;BME280;26740;45.944;12.480;2024-03-25T03:55:36;100455.13;;;0.83;100.00
40998;BME280;26740;45.944;12.480;2024-03-25T03:58:02;100462.44;;;1.04;100.00
40998;BME280;26740;45.944;12.480;2024-03-25T04:00:28;100462.53;;;1.17;100.00
40998;BME280;26740;45.944;12.480;2024-03-25T04:02:53;100448.25;;;1.22;100.00
40998;BME280;26740;45.944;12.480;2024-03-25T04:05:19;100451.94;;;1.07;100.00
40998;BME280;26740;45.944;12.480;2024-03-25T04:07:45;100457.59;;;0.99;100.00
40998;BME280;26740;45.944;12.480;2024-03-25T04:10:11;100457.38;;;1.01;100.00
40998;BME280;26740;45.944;12.480;2024-03-25T04:12:37;100457.25;;;1.16;100.00
40998;BME280;26740;45.944;12.480;2024-03-25T04:15:03;100464.53;;;1.37;100.00
40998;BME280;26740;45.944;12.480;2024-03-25T04:17:29;100455.38;;;1.51;100.00
40998;BME280;26740;45.944;12.480;2024-03-25T04:19:54;100456.88;;;1.60;100.00
40998;BME280;26740;45.944;12.480;2024-03-25T04:22:20;100471.97;;;1.14;100.00
40998;BME280;26740;45.944;12.480;2024-03-25T04:24:46;100465.59;;;1.07;100.00
40998;BME280;26740;45.944;12.480;2024-03-25T04:27:11;100465.16;;;0.97;100.00
40998;BME280;26740;45.944;12.480;2024-03-25T04:29:37;100466.50;;;0.86;100.00
40998;BME280;26740;45.944;12.480;2024-03-25T04:32:03;100460.84;;;0.88;100.00
40998;BME280;26740;45.944;12.480;2024-03-25T04:34:29;100467.97;;;0.82;100.00
40998;BME280;26740;45.944;12.480;2024-03-25T04:36:55;100465.81;;;0.78;100.00
40998;BME280;26740;45.944;12.480;2024-03-25T04:39:21;100482.81;;;0.73;100.00
40998;BME280;26740;45.944;12.480;2024-03-25T04:41:47;100485.75;;;0.71;100.00
40998;BME280;26740;45.944;12.480;2024-03-25T04:44:13;100483.38;;;0.68;100.00
40998;BME280;26740;45.944;12.480;2024-03-25T04:46:40;100484.88;;;0.92;100.00
40998;BME280;26740;45.944;12.480;2024-03-25T04:49:06;100485.94;;;0.98;100.00
40998;BME280;26740;45.944;12.480;2024-03-25T04:51:31;100481.53;;;0.97;100.00
40998;BME280;26740;45.944;12.480;2024-03-25T04:53:57;100490.19;;;1.01;100.00
40998;BME280;26740;45.944;12.480;2024-03-25T04:56:23;100481.38;;;1.05;100.00
40998;BME280;26740;45.944;12.480;2024-03-25T04:58:49;100473.81;;;1.07;100.00
40998;BME280;26740;45.944;12.480;2024-03-25T05:01:14;100485.38;;;1.03;100.00
40998;BME280;26740;45.944;12.480;2024-03-25T05:03:40;100491.81;;;0.95;100.00
40998;BME280;26740;45.944;12.480;2024-03-25T05:06:05;100502.50;;;0.90;100.00
40998;BME280;26740;45.944;12.480;2024-03-25T05:08:34;100503.16;;;0.92;100.00
40998;BME280;26740;45.944;12.480;2024-03-25T05:11:00;100498.97;;;0.96;100.00
40998;BME280;26740;45.944;12.480;2024-03-25T05:13:25;100497.34;;;1.02;100.00
40998;BME280;26740;45.944;12.480;2024-03-25T05:15:51;100505.28;;;0.97;100.00
40998;BME280;26740;45.944;12.480;2024-03-25T05:18:18;100502.69;;;1.45;100.00
40998;BME280;26740;45.944;12.480;2024-03-25T05:20:44;100511.25;;;1.70;100.00
40998;BME280;26740;45.944;12.480;2024-03-25T05:23:09;100521.78;;;2.21;100.00
40998;BME280;26740;45.944;12.480;2024-03-25T05:25:36;100521.47;;;2.78;100.00
40998;BME280;26740;45.944;12.480;2024-03-25T05:28:02;100522.09;;;3.33;100.00
40998;BME280;26740;45.944;12.480;2024-03-25T05:30:27;100518.38;;;3.86;100.00
40998;BME280;26740;45.944;12.480;2024-03-25T05:32:53;100521.09;;;4.06;100.00
40998;BME280;26740;45.944;12.480;2024-03-25T05:35:19;100511.25;;;4.62;100.00
40998;BME280;26740;45.944;12.480;2024-03-25T05:37:44;100518.66;;;5.44;100.00
40998;BME280;26740;45.944;12.480;2024-03-25T05:40:10;100511.34;;;6.12;100.00
40998;BME280;26740;45.944;12.480;2024-03-25T05:42:37;100520.63;;;6.90;100.00
40998;BME280;26740;45.944;12.480;2024-03-25T05:45:03;100524.81;;;7.34;100.00
40998;BME280;26740;45.944;12.480;2024-03-25T05:47:29;100530.28;;;7.11;100.00
40998;BME280;26740;45.944;12.480;2024-03-25T05:49:54;100530.88;;;7.01;100.00
40998;BME280;26740;45.944;12.480;2024-03-25T05:52:20;100530.50;;;8.15;100.00
40998;BME280;26740;45.944;12.480;2024-03-25T05:54:46;100534.69;;;8.59;100.00
40998;BME280;26740;45.944;12.480;2024-03-25T05:57:12;100528.69;;;9.07;100.00
40998;BME280;26740;45.944;12.480;2024-03-25T05:59:38;100533.72;;;9.44;100.00
40998;BME280;26740;45.944;12.480;2024-03-25T06:02:03;100537.91;;;9.64;100.00
40998;BME280;26740;45.944;12.480;2024-03-25T06:04:29;100532.56;;;9.23;100.00
40998;BME280;26740;45.944;12.480;2024-03-25T06:06:54;100537.44;;;9.89;100.00
40998;BME280;26740;45.944;12.480;2024-03-25T06:09:20;100539.72;;;10.58;100.00
40998;BME280;26740;45.944;12.480;2024-03-25T06:11:46;100534.69;;;11.10;100.00
40998;BME280;26740;45.944;12.480;2024-03-25T06:14:12;100528.94;;;10.18;100.00
40998;BME280;26740;45.944;12.480;2024-03-25T06:16:37;100525.94;;;9.80;100.00
40998;BME280;26740;45.944;12.480;2024-03-25T06:19:03;100529.78;;;10.62;100.00
40998;BME280;26740;45.944;12.480;2024-03-25T06:21:28;100528.28;;;11.09;100.00
40998;BME280;26740;45.944;12.480;2024-03-25T06:23:54;100520.22;;;11.08;100.00
40998;BME280;26740;45.944;12.480;2024-03-25T06:26:20;100531.06;;;11.42;100.00
40998;BME280;26740;45.944;12.480;2024-03-25T06:28:46;100524.00;;;10.42;100.00
40998;BME280;26740;45.944;12.480;2024-03-25T06:31:12;100538.38;;;10.61;100.00
40998;BME280;26740;45.944;12.480;2024-03-25T06:33:56;100538.53;;;10.76;100.00
40998;BME280;26740;45.944;12.480;2024-03-25T06:36:43;100538.13;;;10.40;100.00
40998;BME280;26740;45.944;12.480;2024-03-25T06:39:09;100542.97;;;11.05;100.00
40998;BME280;26740;45.944;12.480;2024-03-25T06:41:35;100540.06;;;11.22;100.00
40998;BME280;26740;45.944;12.480;2024-03-25T06:44:00;100540.91;;;10.62;100.00
40998;BME280;26740;45.944;12.480;2024-03-25T06:46:26;100536.34;;;10.78;100.00
40998;BME280;26740;45.944;12.480;2024-03-25T06:48:51;100541.97;;;10.89;100.00
40998;BME280;26740;45.944;12.480;2024-03-25T06:51:18;100546.34;;;11.07;100.00
40998;BME280;26740;45.944;12.480;2024-03-25T06:53:44;100548.91;;;11.46;100.00
40998;BME280;26740;45.944;12.480;2024-03-25T06:56:09;100546.47;;;11.92;100.00
40998;BME280;26740;45.944;12.480;2024-03-25T06:58:35;100548.88;;;11.83;100.00
40998;BME280;26740;45.944;12.480;2024-03-25T07:01:05;100550.22;;;11.38;100.00
40998;BME280;26740;45.944;12.480;2024-03-25T07:03:32;100551.44;;;11.47;100.00
40998;BME280;26740;45.944;12.480;2024-03-25T07:05:59;100553.75;;;12.03;100.00
40998;BME280;26740;45.944;12.480;2024-03-25T07:08:26;100552.53;;;11.89;100.00
40998;BME280;26740;45.944;12.480;2024-03-25T07:10:52;100558.88;;;12.22;100.00
40998;BME280;26740;45.944;12.480;2024-03-25T07:13:18;100550.81;;;13.65;100.00
40998;BME280;26740;45.944;12.480;2024-03-25T07:15:44;100554.66;;;14.86;96.26
40998;BME280;26740;45.944;12.480;2024-03-25T07:18:11;100549.94;;;15.55;76.11
40998;BME280;26740;45.944;12.480;2024-03-25T07:20:39;100559.59;;;14.39;78.12
40998;BME280;26740;45.944;12.480;2024-03-25T07:23:04;100555.06;;;15.43;78.00
40998;BME280;26740;45.944;12.480;2024-03-25T07:25:30;100555.53;;;15.55;72.08
40998;BME280;26740;45.944;12.480;2024-03-25T07:27:56;100562.75;;;15.62;65.76
40998;BME280;26740;45.944;12.480;2024-03-25T07:30:22;100568.13;;;16.17;60.15
40998;BME280;26740;45.944;12.480;2024-03-25T07:32:50;100567.63;;;16.34;58.28
40998;BME280;26740;45.944;12.480;2024-03-25T07:35:15;100576.91;;;17.01;57.36
40998;BME280;26740;45.944;12.480;2024-03-25T07:37:43;100575.31;;;17.14;54.95
40998;BME280;26740;45.944;12.480;2024-03-25T07:40:08;100570.84;;;17.98;50.39
40998;BME280;26740;45.944;12.480;2024-03-25T07:42:35;100572.78;;;17.51;51.03
40998;BME280;26740;45.944;12.480;2024-03-25T07:45:01;100569.91;;;16.32;53.56
40998;BME280;26740;45.944;12.480;2024-03-25T07:47:27;100564.47;;;15.92;55.82
40998;BME280;26740;45.944;12.480;2024-03-25T07:49:53;100575.53;;;16.02;54.23
40998;BME280;26740;45.944;12.480;2024-03-25T07:52:19;100575.81;;;16.06;56.56
40998;BME280;26740;45.944;12.480;2024-03-25T07:54:45;100575.41;;;16.66;51.42
40998;BME280;26740;45.944;12.480;2024-03-25T07:57:10;100568.03;;;15.63;53.92
40998;BME280;26740;45.944;12.480;2024-03-25T07:59:36;100561.28;;;15.75;56.71
40998;BME280;26740;45.944;12.480;2024-03-25T08:02:01;100571.19;;;17.44;54.56
40998;BME280;26740;45.944;12.480;2024-03-25T08:04:27;100560.38;;;17.85;49.87
40998;BME280;26740;45.944;12.480;2024-03-25T08:06:52;100565.00;;;17.94;46.61
40998;BME280;26740;45.944;12.480;2024-03-25T08:09:18;100570.44;;;17.20;46.21
40998;BME280;26740;45.944;12.480;2024-03-25T08:11:45;100583.19;;;16.93;48.84
40998;BME280;26740;45.944;12.480;2024-03-25T08:14:11;100578.63;;;16.54;49.77
40998;BME280;26740;45.944;12.480;2024-03-25T08:16:36;100584.34;;;16.68;47.22
40998;BME280;26740;45.944;12.480;2024-03-25T08:19:02;100584.22;;;16.06;50.92
40998;BME280;26740;45.944;12.480;2024-03-25T08:21:27;100579.41;;;14.43;52.46
40998;BME280;26740;45.944;12.480;2024-03-25T08:23:53;100581.47;;;15.32;58.67
40998;BME280;26740;45.944;12.480;2024-03-25T08:26:19;100577.72;;;15.47;53.41
40998;BME280;26740;45.944;12.480;2024-03-25T08:28:44;100580.41;;;15.62;52.51
40998;BME280;26740;45.944;12.480;2024-03-25T08:31:10;100580.47;;;16.40;53.35
40998;BME280;26740;45.944;12.480;2024-03-25T08:33:36;100578.81;;;15.85;50.31
40998;BME280;26740;45.944;12.480;2024-03-25T08:36:01;100595.47;;;15.66;49.72
40998;BME280;26740;45.944;12.480;2024-03-25T08:38:28;100596.47;;;16.82;47.48
40998;BME280;26740;45.944;12.480;2024-03-25T08:40:54;100597.06;;;17.03;47.89
40998;BME280;26740;45.944;12.480;2024-03-25T08:43:19;100592.06;;;17.00;50.94
40998;BME280;26740;45.944;12.480;2024-03-25T08:45:45;100600.28;;;16.67;48.90
40998;BME280;26740;45.944;12.480;2024-03-25T08:48:11;100600.06;;;16.88;49.65
40998;BME280;26740;45.944;12.480;2024-03-25T08:50:37;100597.16;;;17.17;44.13
40998;BME280;26740;45.944;12.480;2024-03-25T08:53:03;100602.94;;;19.08;43.71
40998;BME280;26740;45.944;12.480;2024-03-25T08:55:29;100594.63;;;18.89;43.44
40998;BME280;26740;45.944;12.480;2024-03-25T08:57:54;100605.97;;;17.62;45.90
40998;BME280;26740;45.944;12.480;2024-03-25T09:00:20;100597.94;;;18.63;44.23
40998;BME280;26740;45.944;12.480;2024-03-25T09:02:46;100612.81;;;20.01;39.02
40998;BME280;26740;45.944;12.480;2024-03-25T09:05:11;100602.47;;;19.87;37.80
40998;BME280;26740;45.944;12.480;2024-03-25T09:07:39;100606.47;;;21.15;37.05
40998;BME280;26740;45.944;12.480;2024-03-25T09:10:05;100610.56;;;22.14;40.25
40998;BME280;26740;45.944;12.480;2024-03-25T09:12:49;100602.09;;;23.63;35.39
40998;BME280;26740;45.944;12.480;2024-03-25T09:15:14;100607.50;;;21.63;36.20
40998;BME280;26740;45.944;12.480;2024-03-25T09:17:40;100607.53;;;19.40;41.59
40998;BME280;26740;45.944;12.480;2024-03-25T09:20:06;100609.06;;;19.24;40.34
40998;BME280;26740;45.944;12.480;2024-03-25T09:22:46;100616.56;;;20.19;39.57
40998;BME280;26740;45.944;12.480;2024-03-25T09:25:14;100616.13;;;21.93;34.74
40998;BME280;26740;45.944;12.480;2024-03-25T09:27:40;100615.31;;;21.66;35.65
40998;BME280;26740;45.944;12.480;2024-03-25T09:30:06;100603.81;;;21.19;35.99
40998;BME280;26740;45.944;12.480;2024-03-25T09:32:34;100607.16;;;21.82;37.68
40998;BME280;26740;45.944;12.480;2024-03-25T09:35:00;100600.88;;;21.50;36.18
40998;BME280;26740;45.944;12.480;2024-03-25T09:37:26;100606.34;;;21.82;37.97
40998;BME280;26740;45.944;12.480;2024-03-25T09:39:52;100609.16;;;21.90;36.82
40998;BME280;26740;45.944;12.480;2024-03-25T09:42:28;100606.13;;;22.51;34.33
40998;BME280;26740;45.944;12.480;2024-03-25T09:44:57;100608.97;;;21.17;35.31
40998;BME280;26740;45.944;12.480;2024-03-25T09:47:22;100618.00;;;19.26;39.05
40998;BME280;26740;45.944;12.480;2024-03-25T09:49:49;100609.44;;;21.10;40.60
40998;BME280;26740;45.944;12.480;2024-03-25T09:52:15;100617.22;;;22.18;35.25
40998;BME280;26740;45.944;12.480;2024-03-25T09:54:41;100606.44;;;21.07;38.62
40998;BME280;26740;45.944;12.480;2024-03-25T09:57:08;100615.38;;;20.82;38.81
40998;BME280;26740;45.944;12.480;2024-03-25T09:59:34;100609.34;;;21.59;38.96
40998;BME280;26740;45.944;12.480;2024-03-25T10:02:01;100610.97;;;21.34;37.79
40998;BME280;26740;45.944;12.480;2024-03-25T10:04:29;100617.06;;;22.06;36.21
40998;BME280;26740;45.944;12.480;2024-03-25T10:06:55;100616.81;;;21.64;34.16
40998;BME280;26740;45.944;12.480;2024-03-25T10:09:21;100614.84;;;20.80;37.19
40998;BME280;26740;45.944;12.480;2024-03-25T10:11:50;100604.47;;;21.33;37.97
40998;BME280;26740;45.944;12.480;2024-03-25T10:14:16;100607.84;;;21.53;34.33
40998;BME280;26740;45.944;12.480;2024-03-25T10:16:42;100606.28;;;21.12;39.14
40998;BME280;26740;45.944;12.480;2024-03-25T10:19:08;100603.13;;;21.13;36.79
40998;BME280;26740;45.944;12.480;2024-03-25T10:21:34;100603.03;;;21.53;35.97
40998;BME280;26740;45.944;12.480;2024-03-25T10:24:00;100605.06;;;22.74;33.80
40998;BME280;26740;45.944;12.480;2024-03-25T10:26:29;100609.78;;;22.05;32.51
40998;BME280;26740;45.944;12.480;2024-03-25T10:29:06;100603.25;;;20.11;38.40
40998;BME280;26740;45.944;12.480;2024-03-25T10:31:32;100597.53;;;21.57;35.58
40998;BME280;26740;45.944;12.480;2024-03-25T10:33:58;100593.97;;;20.90;36.87
40998;BME280;26740;45.944;12.480;2024-03-25T10:36:24;100588.03;;;21.62;36.86
40998;BME280;26740;45.944;12.480;2024-03-25T10:38:55;100582.38;;;21.79;37.23
40998;BME280;26740;45.944;12.480;2024-03-25T10:41:22;100577.28;;;22.28;35.27
40998;BME280;26740;45.944;12.480;2024-03-25T10:43:48;100577.59;;;21.53;38.92
40998;BME280;26740;45.944;12.480;2024-03-25T10:46:24;100573.94;;;21.27;34.84
40998;BME280;26740;45.944;12.480;2024-03-25T10:48:54;100573.66;;;20.62;36.24
40998;BME280;26740;45.944;12.480;2024-03-25T10:51:23;100573.19;;;20.69;32.94
40998;BME280;26740;45.944;12.480;2024-03-25T10:53:53;100567.28;;;20.56;33.79
40998;BME280;26740;45.944;12.480;2024-03-25T10:56:22;100566.81;;;20.54;32.58
40998;BME280;26740;45.944;12.480;2024-03-25T10:58:49;100562.44;;;20.97;32.34
40998;BME280;26740;45.944;12.480;2024-03-25T11:01:16;100562.56;;;21.96;31.06
40998;BME280;26740;45.944;12.480;2024-03-25T11:03:43;100547.75;;;19.88;36.82
40998;BME280;26740;45.944;12.480;2024-03-25T11:06:09;100541.38;;;20.05;36.93
40998;BME280;26740;45.944;12.480;2024-03-25T11:08:34;100545.91;;;18.38;39.78
40998;BME280;26740;45.944;12.480;2024-03-25T11:11:00;100548.81;;;18.88;37.69
40998;BME280;26740;45.944;12.480;2024-03-25T11:13:27;100538.78;;;18.82;38.85
40998;BME280;26740;45.944;12.480;2024-03-25T11:15:53;100533.34;;;18.72;38.58
40998;BME280;26740;45.944;12.480;2024-03-25T11:18:22;100532.34;;;18.54;42.03
40998;BME280;26740;45.944;12.480;2024-03-25T11:21:06;100530.72;;;18.25;38.42
40998;BME280;26740;45.944;12.480;2024-03-25T11:23:43;100534.84;;;18.42;40.19
40998;BME280;26740;45.944;12.480;2024-03-25T11:26:21;100536.22;;;18.44;36.69
40998;BME280;26740;45.944;12.480;2024-03-25T11:28:50;100535.69;;;18.00;40.26
40998;BME280;26740;45.944;12.480;2024-03-25T11:31:20;100528.72;;;19.04;46.13
40998;BME280;26740;45.944;12.480;2024-03-25T11:33:47;100543.97;;;19.03;37.39
40998;BME280;26740;45.944;12.480;2024-03-25T11:36:12;100532.56;;;18.57;35.91
40998;BME280;26740;45.944;12.480;2024-03-25T11:38:38;100531.31;;;18.08;40.11
40998;BME280;26740;45.944;12.480;2024-03-25T11:41:07;100530.06;;;18.00;36.04
40998;BME280;26740;45.944;12.480;2024-03-25T11:43:33;100523.50;;;18.47;39.55
40998;BME280;26740;45.944;12.480;2024-03-25T11:45:59;100523.59;;;18.14;38.90
40998;BME280;26740;45.944;12.480;2024-03-25T11:48:25;100522.47;;;18.43;40.34
40998;BME280;26740;45.944;12.480;2024-03-25T11:50:51;100519.22;;;18.49;41.76
40998;BME280;26740;45.944;12.480;2024-03-25T11:53:17;100517.66;;;18.71;39.06
40998;BME280;26740;45.944;12.480;2024-03-25T11:55:46;100507.56;;;18.56;39.93
40998;BME280;26740;45.944;12.480;2024-03-25T11:58:13;100513.63;;;18.22;38.02
40998;BME280;26740;45.944;12.480;2024-03-25T12:00:46;100504.22;;;18.54;38.86
40998;BME280;26740;45.944;12.480;2024-03-25T12:03:15;100497.44;;;18.69;42.25
40998;BME280;26740;45.944;12.480;2024-03-25T12:05:41;100495.41;;;18.33;41.78
40998;BME280;26740;45.944;12.480;2024-03-25T12:08:10;100499.06;;;18.06;39.64
40998;BME280;26740;45.944;12.480;2024-03-25T12:10:37;100492.88;;;18.45;41.58
40998;BME280;26740;45.944;12.480;2024-03-25T12:13:22;100492.56;;;18.61;40.91
40998;BME280;26740;45.944;12.480;2024-03-25T12:15:47;100490.78;;;18.51;36.21
40998;BME280;26740;45.944;12.480;2024-03-25T12:18:14;100484.63;;;18.63;38.39
40998;BME280;26740;45.944;12.480;2024-03-25T12:20:40;100484.56;;;18.54;42.31
40998;BME280;26740;45.944;12.480;2024-03-25T12:23:07;100477.28;;;18.39;38.98
40998;BME280;26740;45.944;12.480;2024-03-25T12:25:32;100484.88;;;18.25;36.29
40998;BME280;26740;45.944;12.480;2024-03-25T12:27:58;100469.66;;;17.84;39.63
40998;BME280;26740;45.944;12.480;2024-03-25T12:30:24;100470.94;;;18.33;39.26
40998;BME280;26740;45.944;12.480;2024-03-25T12:32:50;100473.22;;;18.17;38.27
40998;BME280;26740;45.944;12.480;2024-03-25T12:35:17;100481.78;;;18.12;38.77
40998;BME280;26740;45.944;12.480;2024-03-25T12:37:46;100476.13;;;18.40;36.17